createdAt,value
2023-04-14T00:00:46.308Z,77.72
2023-04-14T00:03:16.877Z,78.31
2023-04-14T00:05:44.878Z,79.25
2023-04-14T00:08:12.817Z,80.95
2023-04-14T00:10:40.752Z,81.72
2023-04-14T00:13:08.758Z,80.33
2023-04-14T00:15:36.697Z,79.99
2023-04-14T00:18:04.772Z,79.59
2023-04-14T00:20:34.073Z,79.35
2023-04-14T00:23:02.028Z,78.75
2023-04-14T00:25:29.942Z,78.94
2023-04-14T00:27:57.882Z,78.66
2023-04-14T00:30:25.958Z,79.56
2023-04-14T00:32:53.886Z,81.16
2023-04-14T00:35:21.883Z,81.47
2023-04-14T00:37:51.773Z,80.61
2023-04-14T00:40:19.765Z,80.25
2023-04-14T00:42:48.527Z,81.78
2023-04-14T00:45:16.716Z,81.35
2023-04-14T00:47:47.261Z,81.34
2023-04-14T00:50:16.677Z,80.01
2023-04-14T00:52:45.977Z,79.64
2023-04-14T00:55:16.097Z,79.32
2023-04-14T00:57:44.115Z,78.90
2023-04-14T01:00:13.929Z,78.72
2023-04-14T01:02:42.552Z,79.27
2023-04-14T01:05:11.024Z,79.46
2023-04-14T01:07:39.250Z,79.03
2023-04-14T01:10:08.436Z,78.80
2023-04-14T01:12:51.960Z,78.92
2023-04-14T01:15:32.951Z,79.36
2023-04-14T01:18:06.897Z,79.09
2023-04-14T01:20:37.096Z,79.07
2023-04-14T01:23:08.466Z,79.35
2023-04-14T01:26:04.038Z,79.60
2023-04-14T01:28:59.528Z,79.88
2023-04-14T01:31:31.251Z,80.20
2023-04-14T01:34:03.306Z,79.49
2023-04-14T01:36:41.508Z,79.86
2023-04-14T01:39:11.123Z,79.69
2023-04-14T01:41:40.696Z,80.23
2023-04-14T01:44:09.160Z,79.88
2023-04-14T01:46:39.741Z,80.45
2023-04-14T01:49:07.838Z,80.69
2023-04-14T01:51:37.559Z,80.60
2023-04-14T01:54:06.583Z,80.34
2023-04-14T01:56:35.091Z,80.10
2023-04-14T01:59:03.585Z,79.53
2023-04-14T02:01:32.465Z,80.03
2023-04-14T02:04:03.041Z,81.15
2023-04-14T02:06:32.538Z,80.83
2023-04-14T02:09:02.396Z,81.26
2023-04-14T02:11:30.945Z,80.48
2023-04-14T02:14:00.609Z,80.21
2023-04-14T02:16:28.662Z,80.06
2023-04-14T02:18:56.546Z,80.00
2023-04-14T02:21:27.269Z,79.34
2023-04-14T02:23:55.161Z,79.77
2023-04-14T02:26:26.418Z,79.14
2023-04-14T02:29:02.474Z,79.16
2023-04-14T02:31:32.374Z,79.48
2023-04-14T02:34:02.134Z,79.25
2023-04-14T02:36:36.421Z,78.96
2023-04-14T02:39:10.437Z,78.64
2023-04-14T02:41:39.757Z,78.67
2023-04-14T02:44:13.673Z,78.59
2023-04-14T02:46:43.341Z,78.79
2023-04-14T02:49:13.084Z,78.74
2023-04-14T02:51:42.898Z,78.67
2023-04-14T02:54:10.877Z,78.50
2023-04-14T02:56:38.972Z,79.00
2023-04-14T02:59:07.327Z,79.03
2023-04-14T03:01:35.970Z,79.31
2023-04-14T03:04:04.065Z,78.68
2023-04-14T03:06:33.328Z,79.51
2023-04-14T03:09:03.529Z,78.73
2023-04-14T03:11:32.226Z,78.77
2023-04-14T03:14:00.706Z,78.85
2023-04-14T03:16:30.013Z,78.47
2023-04-14T03:18:58.263Z,78.50
2023-04-14T03:21:26.892Z,78.42
2023-04-14T03:23:55.963Z,78.86
2023-04-14T03:26:26.884Z,78.52
2023-04-14T03:28:56.240Z,78.69
2023-04-14T03:31:31.749Z,78.80
2023-04-14T03:34:01.429Z,78.44
2023-04-14T03:36:30.836Z,78.26
2023-04-14T03:39:01.573Z,78.36
2023-04-14T03:41:34.354Z,78.51
2023-04-14T03:44:03.699Z,78.31
2023-04-14T03:46:31.629Z,78.34
2023-04-14T03:49:02.358Z,78.16
2023-04-14T03:51:33.046Z,78.48
2023-04-14T03:54:02.295Z,78.92
2023-04-14T03:56:32.725Z,78.39
2023-04-14T03:59:02.696Z,78.93
2023-04-14T04:01:31.927Z,78.54
2023-04-14T04:04:02.286Z,78.79
2023-04-14T04:06:31.591Z,78.71
2023-04-14T04:09:01.343Z,78.89
2023-04-14T04:11:31.584Z,79.07
2023-04-14T04:14:00.109Z,79.25
2023-04-14T04:16:29.179Z,79.25
2023-04-14T04:18:58.115Z,79.54
2023-04-14T04:21:28.393Z,78.61
2023-04-14T04:23:57.102Z,79.07
2023-04-14T04:26:26.252Z,78.87
2023-04-14T04:28:55.932Z,79.79
2023-04-14T04:31:25.188Z,79.24
2023-04-14T04:33:53.147Z,79.90
2023-04-14T04:36:21.404Z,79.76
2023-04-14T04:38:50.420Z,80.17
2023-04-14T04:41:24.752Z,80.44
2023-04-14T04:43:52.672Z,81.08
2023-04-14T04:46:41.897Z,80.55
2023-04-14T04:49:09.843Z,80.53
2023-04-14T04:51:37.767Z,80.77
2023-04-14T04:54:06.003Z,81.50
2023-04-14T04:56:34.327Z,81.27
2023-04-14T04:59:02.511Z,81.18
2023-04-14T05:01:31.983Z,80.85
2023-04-14T05:04:00.050Z,80.78
2023-04-14T05:06:28.239Z,81.16
2023-04-14T05:08:56.642Z,80.27
2023-04-14T05:11:24.676Z,80.18
2023-04-14T05:13:52.589Z,80.49
2023-04-14T05:16:20.563Z,80.36
2023-04-14T05:18:49.951Z,79.53
2023-04-14T05:21:17.858Z,79.58
2023-04-14T05:23:46.543Z,79.81
2023-04-14T05:26:39.000Z,80.41
2023-04-14T05:29:03.193Z,80.14
2023-04-14T05:31:31.382Z,80.22
2023-04-14T05:34:01.249Z,79.93
2023-04-14T05:36:29.504Z,79.39
2023-04-14T05:38:57.388Z,78.72
2023-04-14T05:41:25.340Z,79.41
2023-04-14T05:43:53.265Z,78.52
2023-04-14T05:46:21.287Z,78.66
2023-04-14T05:48:49.294Z,77.92
2023-04-14T05:51:18.580Z,78.15
2023-04-14T05:53:46.578Z,77.65
2023-04-14T05:56:14.531Z,78.09
2023-04-14T05:58:42.423Z,78.11
2023-04-14T06:01:10.809Z,77.91
2023-04-14T06:03:40.593Z,77.46
2023-04-14T06:06:09.154Z,77.46
2023-04-14T06:08:38.547Z,77.13
2023-04-14T06:11:06.772Z,77.21
2023-04-14T06:13:36.289Z,77.09
2023-04-14T06:16:04.734Z,78.63
2023-04-14T06:18:33.202Z,79.21
2023-04-14T06:21:01.172Z,79.34
2023-04-14T06:23:29.137Z,79.10
2023-04-14T06:25:58.740Z,81.37
2023-04-14T06:28:26.661Z,80.50
2023-04-14T06:30:54.634Z,78.47
2023-04-14T06:33:22.576Z,77.26
2023-04-14T06:35:50.773Z,76.74
2023-04-14T06:38:18.647Z,76.16
2023-04-14T06:40:46.577Z,75.69
2023-04-14T06:43:17.793Z,75.16
2023-04-14T06:45:45.727Z,74.63
2023-04-14T06:48:14.388Z,74.35
2023-04-14T06:50:43.768Z,74.17
2023-04-14T06:53:12.348Z,73.81
2023-04-14T06:55:42.002Z,73.66
2023-04-14T06:58:09.918Z,73.31
2023-04-14T07:00:39.266Z,73.21
2023-04-14T07:03:07.364Z,72.78
2023-04-14T07:05:35.290Z,73.21
2023-04-14T07:08:03.188Z,73.09
2023-04-14T07:10:31.108Z,74.05
2023-04-14T07:12:59.561Z,74.02
2023-04-14T07:15:27.585Z,72.43
2023-04-14T07:17:59.370Z,72.37
2023-04-14T07:20:28.151Z,72.02
2023-04-14T07:22:56.341Z,73.36
2023-04-14T07:25:24.546Z,74.05
2023-04-14T07:28:02.546Z,72.01
2023-04-14T07:30:31.628Z,74.28
2023-04-14T07:33:02.676Z,73.17
2023-04-14T07:35:30.798Z,77.17
2023-04-14T07:37:58.740Z,75.19
2023-04-14T07:40:27.006Z,71.81
2023-04-14T07:42:54.957Z,72.50
2023-04-14T07:45:22.921Z,72.17
2023-04-14T07:47:52.228Z,72.42
2023-04-14T07:50:21.891Z,74.84
2023-04-14T07:52:49.800Z,72.42
2023-04-14T07:55:17.799Z,72.15
2023-04-14T07:57:45.748Z,72.57
2023-04-14T08:00:14.805Z,72.26
2023-04-14T08:02:42.841Z,72.70
2023-04-14T08:05:10.900Z,73.15
2023-04-14T08:07:41.577Z,72.35
2023-04-14T08:10:09.815Z,75.05
2023-04-14T08:12:37.773Z,74.47
2023-04-14T08:15:06.181Z,72.72
2023-04-14T08:17:34.153Z,72.31
2023-04-14T08:20:02.083Z,72.49
2023-04-14T08:22:29.991Z,72.96
2023-04-14T08:24:59.260Z,72.64
2023-04-14T08:27:27.175Z,72.37
2023-04-14T08:29:55.095Z,71.99
2023-04-14T08:32:23.053Z,72.26
2023-04-14T08:35:35.111Z,71.82
2023-04-14T08:37:38.886Z,72.09
2023-04-14T08:40:11.035Z,71.92
2023-04-14T08:42:39.058Z,72.25
2023-04-14T08:45:08.100Z,72.44
2023-04-14T08:47:37.493Z,71.84
2023-04-14T08:50:08.102Z,72.13
2023-04-14T08:52:37.331Z,71.39
2023-04-14T08:55:08.506Z,71.22
2023-04-14T08:57:36.480Z,70.94
2023-04-14T09:00:05.047Z,71.27
2023-04-14T09:02:34.047Z,70.58
2023-04-14T09:05:02.383Z,70.08
2023-04-14T09:07:31.093Z,69.96
2023-04-14T09:09:59.179Z,69.43
2023-04-14T09:12:28.587Z,69.19
2023-04-14T09:14:58.274Z,69.68
2023-04-14T09:17:26.511Z,69.14
2023-04-14T09:20:37.619Z,68.29
2023-04-14T09:22:43.004Z,68.61
2023-04-14T09:25:11.649Z,68.90
2023-04-14T09:27:41.357Z,69.20
2023-04-14T09:30:10.789Z,68.76
2023-04-14T09:32:39.598Z,68.17
2023-04-14T09:35:07.949Z,67.96
2023-04-14T09:37:43.824Z,67.01
2023-04-14T09:40:12.899Z,65.95
2023-04-14T09:42:42.986Z,65.88
2023-04-14T09:45:11.348Z,66.25
2023-04-14T09:47:39.370Z,61.77
2023-04-14T09:50:08.594Z,65.38
2023-04-14T09:52:40.984Z,64.67
2023-04-14T09:55:11.726Z,63.82
2023-04-14T09:57:44.081Z,63.85
2023-04-14T10:00:21.653Z,64.17
2023-04-14T10:02:50.350Z,63.70
2023-04-14T10:05:20.562Z,63.89
2023-04-14T10:07:49.245Z,62.89
2023-04-14T10:10:17.675Z,62.45
2023-04-14T10:12:47.231Z,59.00
2023-04-14T10:15:17.378Z,61.64
2023-04-14T10:17:45.376Z,60.09
2023-04-14T10:20:13.623Z,61.55
2023-04-14T10:22:42.249Z,62.12
2023-04-14T10:25:11.219Z,61.44
2023-04-14T10:27:40.268Z,62.62
2023-04-14T10:30:10.366Z,56.07
2023-04-14T10:32:40.523Z,60.53
2023-04-14T10:35:11.065Z,60.04
2023-04-14T10:37:39.518Z,61.00
2023-04-14T10:40:08.492Z,60.14
2023-04-14T10:42:57.513Z,59.72
2023-04-14T10:45:26.831Z,57.98
2023-04-14T10:47:56.833Z,59.75
2023-04-14T10:50:26.010Z,58.74
2023-04-14T10:52:56.164Z,57.74
2023-04-14T10:55:24.875Z,54.29
2023-04-14T10:57:54.551Z,57.05
2023-04-14T11:00:25.192Z,56.31
2023-04-14T11:02:59.248Z,56.59
2023-04-14T11:05:27.396Z,57.28
2023-04-14T11:07:59.922Z,57.93
2023-04-14T11:10:32.491Z,57.02
2023-04-14T11:13:04.942Z,57.23
2023-04-14T11:15:46.747Z,57.37
2023-04-14T11:18:17.539Z,57.19
2023-04-14T11:20:45.916Z,54.56
2023-04-14T11:23:15.166Z,56.59
2023-04-14T11:25:43.459Z,55.40
2023-04-14T11:28:11.862Z,56.16
2023-04-14T11:30:43.141Z,54.93
2023-04-14T11:33:11.458Z,55.37
2023-04-14T11:35:43.646Z,50.47
2023-04-14T11:38:12.446Z,54.93
2023-04-14T11:40:40.804Z,55.18
2023-04-14T11:43:09.149Z,56.05
2023-04-14T11:45:37.619Z,53.88
2023-04-14T11:48:07.287Z,53.87
2023-04-14T11:50:38.921Z,53.74
2023-04-14T11:53:09.998Z,54.23
2023-04-14T11:55:38.472Z,55.83
2023-04-14T11:58:06.772Z,54.84
2023-04-14T12:00:35.159Z,50.35
2023-04-14T12:03:04.130Z,53.30
2023-04-14T12:05:33.861Z,54.21
2023-04-14T12:08:03.880Z,53.14
2023-04-14T12:10:34.517Z,53.99
2023-04-14T12:13:03.084Z,51.91
2023-04-14T12:15:32.380Z,53.61
2023-04-14T12:18:00.680Z,55.48
2023-04-14T12:20:30.356Z,57.63
2023-04-14T12:23:03.011Z,55.96
2023-04-14T12:25:34.524Z,53.99
2023-04-14T12:28:06.175Z,55.27
2023-04-14T12:30:34.178Z,52.88
2023-04-14T12:33:09.606Z,51.85
2023-04-14T12:35:37.552Z,52.42
2023-04-14T12:38:10.960Z,53.99
2023-04-14T12:40:42.586Z,52.33
2023-04-14T12:43:10.880Z,52.74
2023-04-14T12:45:42.793Z,49.04
2023-04-14T12:48:10.731Z,47.64
2023-04-14T12:50:38.746Z,52.15
2023-04-14T12:53:24.474Z,51.60
2023-04-14T12:56:07.522Z,51.78
2023-04-14T12:58:36.448Z,52.19
2023-04-14T13:01:06.142Z,50.43
2023-04-14T13:03:45.987Z,49.82
2023-04-14T13:06:16.471Z,51.20
2023-04-14T13:08:46.246Z,50.37
2023-04-14T13:11:16.329Z,49.67
2023-04-14T13:13:45.563Z,50.21
2023-04-14T13:16:16.818Z,49.33
2023-04-14T13:18:47.041Z,50.77
2023-04-14T13:21:15.193Z,50.51
2023-04-14T13:23:43.163Z,50.54
2023-04-14T13:26:11.389Z,50.66
2023-04-14T13:28:40.752Z,49.75
2023-04-14T13:31:08.648Z,50.43
2023-04-14T13:33:36.755Z,50.66
2023-04-14T13:36:04.936Z,52.29
2023-04-14T13:38:33.477Z,51.01
2023-04-14T13:41:01.503Z,50.31
2023-04-14T13:43:29.990Z,50.43
2023-04-14T13:45:59.545Z,50.76
2023-04-14T13:48:27.581Z,51.13
2023-04-14T13:50:56.029Z,50.72
2023-04-14T13:53:24.077Z,50.91
2023-04-14T13:55:52.099Z,50.61
2023-04-14T13:58:20.012Z,49.69
2023-04-14T14:00:47.969Z,51.32
2023-04-14T14:03:17.586Z,49.42
2023-04-14T14:05:45.707Z,49.54
2023-04-14T14:08:14.828Z,49.85
2023-04-14T14:10:42.820Z,51.94
2023-04-14T14:13:10.750Z,51.05
2023-04-14T14:15:38.701Z,53.00
2023-04-14T14:18:07.462Z,53.17
2023-04-14T14:20:36.803Z,54.09
2023-04-14T14:23:04.713Z,55.38
2023-04-14T14:25:32.616Z,55.42
2023-04-14T14:28:00.547Z,54.70
2023-04-14T14:30:28.638Z,51.67
2023-04-14T14:32:56.706Z,51.83
2023-04-14T14:35:24.636Z,50.44
2023-04-14T14:37:53.977Z,51.43
2023-04-14T14:40:22.249Z,51.04
2023-04-14T14:42:50.514Z,50.55
2023-04-14T14:45:18.978Z,50.00
2023-04-14T14:47:58.663Z,49.32
2023-04-14T14:50:26.651Z,48.85
2023-04-14T14:52:56.996Z,47.52
2023-04-14T14:55:24.996Z,48.43
2023-04-14T14:57:52.941Z,51.22
2023-04-14T15:00:21.388Z,50.65
2023-04-14T15:02:49.734Z,49.52
2023-04-14T15:05:18.049Z,48.62
2023-04-14T15:07:46.003Z,48.42
2023-04-14T15:10:16.047Z,48.67
2023-04-14T15:12:43.971Z,49.99
2023-04-14T15:15:13.033Z,48.17
2023-04-14T15:17:41.120Z,51.07
2023-04-14T15:20:10.102Z,51.25
2023-04-14T15:22:38.145Z,50.60
2023-04-14T15:25:07.069Z,48.45
2023-04-14T15:27:36.539Z,48.89
2023-04-14T15:30:07.514Z,49.54
2023-04-14T15:32:35.502Z,51.54
2023-04-14T15:35:03.459Z,48.77
2023-04-14T15:37:31.387Z,49.77
2023-04-14T15:39:59.525Z,49.82
2023-04-14T15:42:27.581Z,49.96
2023-04-14T15:44:56.883Z,50.11
2023-04-14T15:47:24.821Z,49.65
2023-04-14T15:50:09.942Z,50.28
2023-04-14T15:52:41.531Z,51.16
2023-04-14T15:55:13.766Z,51.67
2023-04-14T15:57:41.690Z,51.52
2023-04-14T16:00:12.656Z,50.37
2023-04-14T16:02:42.147Z,50.99
2023-04-14T16:05:10.706Z,52.00
2023-04-14T16:07:38.731Z,52.27
2023-04-14T16:10:08.573Z,54.30
2023-04-14T16:12:36.670Z,54.65
2023-04-14T16:15:08.209Z,55.08
2023-04-14T16:17:37.574Z,54.92
2023-04-14T16:20:11.493Z,54.19
2023-04-14T16:22:39.493Z,53.15
2023-04-14T16:25:08.468Z,54.07
2023-04-14T16:27:36.422Z,50.90
2023-04-14T16:30:10.611Z,50.77
2023-04-14T16:32:40.010Z,50.26
2023-04-14T16:35:09.380Z,52.56
2023-04-14T16:37:37.554Z,52.13
2023-04-14T16:40:06.974Z,51.14
2023-04-14T16:42:37.984Z,50.55
2023-04-14T16:45:07.198Z,50.83
2023-04-14T16:47:35.709Z,50.54
2023-04-14T16:50:05.413Z,49.00
2023-04-14T16:52:34.979Z,48.50
2023-04-14T16:55:03.242Z,47.66
2023-04-14T16:57:31.410Z,50.19
2023-04-14T16:59:59.396Z,52.80
2023-04-14T17:02:27.419Z,52.43
2023-04-14T17:04:57.058Z,53.30
2023-04-14T17:07:26.547Z,55.01
2023-04-14T17:09:54.427Z,55.84
2023-04-14T17:12:22.396Z,55.05
2023-04-14T17:14:50.479Z,55.07
2023-04-14T17:17:18.373Z,54.61
2023-04-14T17:19:46.719Z,56.32
2023-04-14T17:22:15.598Z,54.50
2023-04-14T17:24:45.716Z,52.93
2023-04-14T17:27:13.632Z,51.30
2023-04-14T17:29:42.077Z,50.34
2023-04-14T17:32:10.697Z,51.07
2023-04-14T17:34:38.657Z,51.17
2023-04-14T17:37:06.592Z,50.93
2023-04-14T17:39:34.541Z,51.69
2023-04-14T17:42:03.963Z,53.47
2023-04-14T17:44:33.742Z,54.47
2023-04-14T17:47:03.122Z,55.84
2023-04-14T17:49:31.563Z,56.49
2023-04-14T17:51:59.509Z,57.42
2023-04-14T17:54:27.496Z,56.91
2023-04-14T17:56:56.714Z,56.90
2023-04-14T17:59:26.340Z,57.62
2023-04-14T18:01:54.819Z,57.84
2023-04-14T18:04:23.096Z,58.13
2023-04-14T18:06:51.256Z,57.45
2023-04-14T18:09:19.193Z,59.05
2023-04-14T18:11:47.130Z,58.25
2023-04-14T18:14:15.431Z,57.78
2023-04-14T18:16:44.740Z,59.11
2023-04-14T18:19:12.746Z,58.03
2023-04-14T18:21:41.409Z,58.01
2023-04-14T18:26:43.401Z,59.27
2023-04-14T18:29:12.020Z,59.42
2023-04-14T18:31:39.988Z,60.00
2023-04-14T18:34:10.159Z,60.50
2023-04-14T18:36:38.762Z,60.09
2023-04-14T18:39:07.120Z,59.92
2023-04-14T18:41:35.088Z,60.61
2023-04-14T18:44:04.380Z,60.89
2023-04-14T18:46:32.383Z,61.29
2023-04-14T18:49:00.499Z,61.48
2023-04-14T18:51:30.369Z,61.77
2023-04-14T18:53:58.382Z,61.68
2023-04-14T18:56:28.076Z,61.72
2023-04-14T18:58:57.537Z,61.45
2023-04-14T19:01:25.714Z,60.61
2023-04-14T19:03:54.503Z,61.51
2023-04-14T19:06:22.883Z,62.18
2023-04-14T19:08:52.157Z,62.33
2023-04-14T19:11:20.690Z,62.26
2023-04-14T19:13:48.781Z,62.79
2023-04-14T19:16:17.175Z,62.50
2023-04-14T19:18:45.136Z,62.18
2023-04-14T19:21:13.363Z,62.16
2023-04-14T19:23:42.310Z,62.40
2023-04-14T19:26:13.552Z,62.35
2023-04-14T19:28:42.542Z,62.60
2023-04-14T19:31:10.775Z,61.96
2023-04-14T19:33:39.210Z,62.19
2023-04-14T19:36:12.858Z,62.53
2023-04-14T19:38:40.748Z,62.67
2023-04-14T19:41:08.882Z,63.13
2023-04-14T19:43:38.384Z,62.76
2023-04-14T19:46:07.912Z,62.76
2023-04-14T19:48:35.940Z,62.61
2023-04-14T19:51:04.395Z,63.09
2023-04-14T19:53:55.712Z,63.17
2023-04-14T19:56:23.794Z,63.14
2023-04-14T19:58:54.008Z,63.40
2023-04-14T20:01:24.219Z,63.33
2023-04-14T20:04:04.421Z,63.69
2023-04-14T20:06:36.470Z,63.94
2023-04-14T20:09:04.761Z,64.04
2023-04-14T20:11:32.991Z,64.09
2023-04-14T20:14:03.816Z,64.09
2023-04-14T20:16:32.678Z,63.99
2023-04-14T20:19:00.860Z,64.14
2023-04-14T20:21:29.482Z,64.12
2023-04-14T20:23:57.704Z,64.10
2023-04-14T20:26:25.573Z,64.27
2023-04-14T20:28:53.488Z,64.19
2023-04-14T20:31:24.341Z,64.58
2023-04-14T20:33:52.334Z,64.12
2023-04-14T20:36:20.657Z,64.32
2023-04-14T20:38:48.558Z,64.14
2023-04-14T20:41:16.537Z,64.33
2023-04-14T20:43:44.478Z,64.44
2023-04-14T20:46:12.462Z,64.65
2023-04-14T20:48:42.170Z,64.58
2023-04-14T20:51:10.096Z,64.71
2023-04-14T20:53:38.065Z,65.04
2023-04-14T20:56:06.287Z,65.03
2023-04-14T20:58:34.311Z,65.30
2023-04-14T21:01:02.969Z,64.95
2023-04-14T21:03:33.318Z,65.45
2023-04-14T21:06:02.808Z,64.83
2023-04-14T21:08:30.767Z,64.95
2023-04-14T21:11:15.895Z,65.31
2023-04-14T21:15:28.076Z,65.54
2023-04-14T21:16:33.334Z,65.44
2023-04-14T21:19:02.848Z,65.59
2023-04-14T21:21:33.174Z,65.56
2023-04-14T21:24:01.626Z,65.58
2023-04-14T21:26:29.698Z,66.11
2023-04-14T21:28:57.669Z,66.34
2023-04-14T21:31:25.916Z,66.19
2023-04-14T21:33:53.884Z,66.73
2023-04-14T21:36:21.932Z,66.71
2023-04-14T21:38:51.523Z,66.27
2023-04-14T21:41:20.077Z,66.17
2023-04-14T21:43:47.973Z,66.20
2023-04-14T21:46:16.073Z,66.39
2023-04-14T21:48:44.072Z,67.38
2023-04-14T21:51:12.006Z,67.74
2023-04-14T21:53:39.939Z,67.21
2023-04-14T21:56:11.028Z,67.39
2023-04-14T21:58:40.248Z,67.80
2023-04-14T22:01:09.673Z,67.82
2023-04-14T22:03:40.462Z,67.29
2023-04-14T22:06:09.987Z,67.28
2023-04-14T22:08:39.192Z,66.89
2023-04-14T22:11:07.522Z,66.65
2023-04-14T22:13:36.869Z,67.26
2023-04-14T22:16:05.236Z,66.88
2023-04-14T22:18:33.192Z,67.07
2023-04-14T22:21:01.546Z,66.54
2023-04-14T22:23:29.482Z,66.54
2023-04-14T22:25:57.463Z,66.80
2023-04-14T22:28:25.397Z,66.59
2023-04-14T22:30:54.819Z,66.61
2023-04-14T22:33:22.737Z,66.71
2023-04-14T22:35:50.672Z,67.24
2023-04-14T22:38:18.677Z,67.04
2023-04-14T22:40:46.726Z,67.12
2023-04-14T22:43:15.423Z,67.47
2023-04-14T22:45:43.404Z,66.97
2023-04-14T22:48:14.601Z,67.13
2023-04-14T22:50:42.785Z,67.37
2023-04-14T22:53:10.925Z,67.21
2023-04-14T22:55:38.962Z,67.44
2023-04-14T22:58:06.903Z,67.34
2023-04-14T23:00:34.822Z,67.66
2023-04-14T23:03:03.167Z,67.32
2023-04-14T23:05:32.603Z,67.77
2023-04-14T23:08:00.523Z,67.44
2023-04-14T23:10:28.573Z,68.29
2023-04-14T23:12:56.464Z,67.41
2023-04-14T23:15:24.433Z,68.07
2023-04-14T23:17:52.315Z,67.87
2023-04-14T23:20:20.610Z,68.07
2023-04-14T23:22:50.596Z,67.92
2023-04-14T23:25:18.550Z,67.81
2023-04-14T23:27:46.488Z,68.14
2023-04-14T23:30:14.408Z,68.35
2023-04-14T23:32:42.313Z,68.25
2023-04-14T23:35:10.950Z,69.85
2023-04-14T23:37:38.909Z,68.18
2023-04-14T23:40:09.777Z,69.16
2023-04-14T23:42:37.811Z,68.18
2023-04-14T23:45:06.925Z,68.25
2023-04-14T23:47:34.921Z,68.47
2023-04-14T23:50:03.060Z,68.50
2023-04-14T23:52:31.021Z,70.97
2023-04-14T23:54:58.924Z,68.71
2023-04-14T23:57:28.362Z,68.49
2023-04-14T23:59:56.889Z,68.76
